sensor_id;sensor_type;location;lat;lon;timestamp;P1;durP1;ratioP1;P2;durP2;ratioP2
85190;SDS011;75560;0.000;0.000;2024-01-30T00:00:51;2.10;;;1.33;;
85190;SDS011;75560;0.000;0.000;2024-01-30T00:03:16;3.90;;;1.60;;
85190;SDS011;75560;0.000;0.000;2024-01-30T00:05:43;3.20;;;1.60;;
85190;SDS011;75560;0.000;0.000;2024-01-30T00:08:08;3.20;;;1.50;;
85190;SDS011;75560;0.000;0.000;2024-01-30T00:10:34;3.25;;;1.40;;
85190;SDS011;75560;0.000;0.000;2024-01-30T00:12:59;2.70;;;1.63;;
85190;SDS011;75560;0.000;0.000;2024-01-30T00:15:25;3.72;;;1.50;;
85190;SDS011;75560;0.000;0.000;2024-01-30T00:17:50;3.45;;;1.45;;
85190;SDS011;75560;0.000;0.000;2024-01-30T00:20:17;1.67;;;1.40;;
85190;SDS011;75560;0.000;0.000;2024-01-30T00:22:43;2.45;;;1.60;;
85190;SDS011;75560;0.000;0.000;2024-01-30T00:25:08;3.72;;;1.58;;
85190;SDS011;75560;0.000;0.000;2024-01-30T00:27:34;2.35;;;1.40;;
85190;SDS011;75560;0.000;0.000;2024-01-30T00:30:00;2.58;;;1.40;;
85190;SDS011;75560;0.000;0.000;2024-01-30T00:32:27;3.60;;;1.55;;
85190;SDS011;75560;0.000;0.000;2024-01-30T00:34:52;1.90;;;1.40;;
85190;SDS011;75560;0.000;0.000;2024-01-30T00:37:18;3.25;;;1.60;;
85190;SDS011;75560;0.000;0.000;2024-01-30T00:39:43;3.15;;;1.40;;
85190;SDS011;75560;0.000;0.000;2024-01-30T00:42:09;3.38;;;1.67;;
85190;SDS011;75560;0.000;0.000;2024-01-30T00:44:35;2.33;;;1.40;;
85190;SDS011;75560;0.000;0.000;2024-01-30T00:47:03;2.70;;;1.48;;
85190;SDS011;75560;0.000;0.000;2024-01-30T00:49:29;2.50;;;1.65;;
85190;SDS011;75560;0.000;0.000;2024-01-30T00:51:55;5.15;;;1.73;;
85190;SDS011;75560;0.000;0.000;2024-01-30T00:54:20;3.10;;;1.40;;
85190;SDS011;75560;0.000;0.000;2024-01-30T00:56:46;2.88;;;1.45;;
85190;SDS011;75560;0.000;0.000;2024-01-30T00:59:11;2.35;;;1.38;;
85190;SDS011;75560;0.000;0.000;2024-01-30T01:01:37;2.97;;;1.40;;
85190;SDS011;75560;0.000;0.000;2024-01-30T01:04:02;1.80;;;1.40;;
85190;SDS011;75560;0.000;0.000;2024-01-30T01:06:28;2.25;;;1.40;;
85190;SDS011;75560;0.000;0.000;2024-01-30T01:08:54;3.67;;;1.50;;
85190;SDS011;75560;0.000;0.000;2024-01-30T01:11:19;2.25;;;1.40;;
85190;SDS011;75560;0.000;0.000;2024-01-30T01:13:45;2.47;;;1.35;;
85190;SDS011;75560;0.000;0.000;2024-01-30T01:16:10;2.10;;;1.40;;
85190;SDS011;75560;0.000;0.000;2024-01-30T01:18:36;2.28;;;1.30;;
85190;SDS011;75560;0.000;0.000;2024-01-30T01:21:01;2.50;;;1.40;;
85190;SDS011;75560;0.000;0.000;2024-01-30T01:23:27;2.92;;;1.40;;
85190;SDS011;75560;0.000;0.000;2024-01-30T01:25:53;2.67;;;1.55;;
85190;SDS011;75560;0.000;0.000;2024-01-30T01:28:18;2.10;;;1.40;;
85190;SDS011;75560;0.000;0.000;2024-01-30T01:30:45;2.03;;;1.40;;
85190;SDS011;75560;0.000;0.000;2024-01-30T01:33:11;2.78;;;1.70;;
85190;SDS011;75560;0.000;0.000;2024-01-30T01:35:39;2.15;;;1.48;;
85190;SDS011;75560;0.000;0.000;2024-01-30T01:38:05;2.35;;;1.50;;
85190;SDS011;75560;0.000;0.000;2024-01-30T01:40:30;2.05;;;1.40;;
85190;SDS011;75560;0.000;0.000;2024-01-30T01:42:56;2.03;;;1.35;;
85190;SDS011;75560;0.000;0.000;2024-01-30T01:45:22;2.35;;;1.40;;
85190;SDS011;75560;0.000;0.000;2024-01-30T01:47:50;2.95;;;1.50;;
85190;SDS011;75560;0.000;0.000;2024-01-30T01:50:16;2.28;;;1.40;;
85190;SDS011;75560;0.000;0.000;2024-01-30T01:52:46;2.38;;;1.55;;
85190;SDS011;75560;0.000;0.000;2024-01-30T01:55:13;2.78;;;1.70;;
85190;SDS011;75560;0.000;0.000;2024-01-30T01:57:40;1.55;;;1.30;;
85190;SDS011;75560;0.000;0.000;2024-01-30T02:00:06;2.00;;;1.60;;
85190;SDS011;75560;0.000;0.000;2024-01-30T02:02:35;2.80;;;1.50;;
85190;SDS011;75560;0.000;0.000;2024-01-30T02:05:01;1.90;;;1.50;;
85190;SDS011;75560;0.000;0.000;2024-01-30T02:07:30;2.40;;;1.52;;
85190;SDS011;75560;0.000;0.000;2024-01-30T02:09:55;3.25;;;1.67;;
85190;SDS011;75560;0.000;0.000;2024-01-30T02:12:21;1.73;;;1.30;;
85190;SDS011;75560;0.000;0.000;2024-01-30T02:14:47;2.33;;;1.50;;
85190;SDS011;75560;0.000;0.000;2024-01-30T02:17:16;1.95;;;1.30;;
85190;SDS011;75560;0.000;0.000;2024-01-30T02:19:42;2.53;;;1.60;;
85190;SDS011;75560;0.000;0.000;2024-01-30T02:22:07;2.45;;;1.50;;
85190;SDS011;75560;0.000;0.000;2024-01-30T02:24:34;2.63;;;1.45;;
85190;SDS011;75560;0.000;0.000;2024-01-30T02:26:59;1.88;;;1.30;;
85190;SDS011;75560;0.000;0.000;2024-01-30T02:29:25;2.17;;;1.60;;
85190;SDS011;75560;0.000;0.000;2024-01-30T02:31:52;1.83;;;1.33;;
85190;SDS011;75560;0.000;0.000;2024-01-30T02:34:18;2.67;;;1.50;;
85190;SDS011;75560;0.000;0.000;2024-01-30T02:36:44;2.35;;;1.50;;
85190;SDS011;75560;0.000;0.000;2024-01-30T02:39:10;2.25;;;1.55;;
85190;SDS011;75560;0.000;0.000;2024-01-30T02:41:36;1.92;;;1.48;;
85190;SDS011;75560;0.000;0.000;2024-01-30T02:44:02;1.90;;;1.50;;
85190;SDS011;75560;0.000;0.000;2024-01-30T02:46:28;1.95;;;1.35;;
85190;SDS011;75560;0.000;0.000;2024-01-30T02:48:54;2.03;;;1.42;;
85190;SDS011;75560;0.000;0.000;2024-01-30T02:51:19;2.45;;;1.50;;
85190;SDS011;75560;0.000;0.000;2024-01-30T02:53:45;2.90;;;1.80;;
85190;SDS011;75560;0.000;0.000;2024-01-30T02:56:10;1.77;;;1.48;;
85190;SDS011;75560;0.000;0.000;2024-01-30T02:58:38;2.38;;;1.40;;
85190;SDS011;75560;0.000;0.000;2024-01-30T03:01:04;2.72;;;1.60;;
85190;SDS011;75560;0.000;0.000;2024-01-30T03:03:31;3.25;;;1.60;;
85190;SDS011;75560;0.000;0.000;2024-01-30T03:05:57;2.05;;;1.33;;
85190;SDS011;75560;0.000;0.000;2024-01-30T03:08:22;1.83;;;1.30;;
85190;SDS011;75560;0.000;0.000;2024-01-30T03:10:48;2.72;;;1.50;;
85190;SDS011;75560;0.000;0.000;2024-01-30T03:13:14;2.03;;;1.40;;
85190;SDS011;75560;0.000;0.000;2024-01-30T03:15:39;2.95;;;1.42;;
85190;SDS011;75560;0.000;0.000;2024-01-30T03:18:05;2.08;;;1.58;;
85190;SDS011;75560;0.000;0.000;2024-01-30T03:20:31;2.65;;;1.65;;
85190;SDS011;75560;0.000;0.000;2024-01-30T03:22:56;2.58;;;1.50;;
85190;SDS011;75560;0.000;0.000;2024-01-30T03:25:24;2.10;;;1.70;;
85190;SDS011;75560;0.000;0.000;2024-01-30T03:27:50;1.73;;;1.40;;
85190;SDS011;75560;0.000;0.000;2024-01-30T03:30:17;2.20;;;1.70;;
85190;SDS011;75560;0.000;0.000;2024-01-30T03:32:43;3.10;;;1.40;;
85190;SDS011;75560;0.000;0.000;2024-01-30T03:35:09;1.80;;;1.50;;
85190;SDS011;75560;0.000;0.000;2024-01-30T03:37:35;2.03;;;1.30;;
85190;SDS011;75560;0.000;0.000;2024-01-30T03:40:02;1.95;;;1.30;;
85190;SDS011;75560;0.000;0.000;2024-01-30T03:42:28;2.08;;;1.40;;
85190;SDS011;75560;0.000;0.000;2024-01-30T03:44:53;2.83;;;1.50;;
85190;SDS011;75560;0.000;0.000;2024-01-30T03:47:20;2.33;;;1.40;;
85190;SDS011;75560;0.000;0.000;2024-01-30T03:49:46;1.73;;;1.30;;
85190;SDS011;75560;0.000;0.000;2024-01-30T03:52:12;2.22;;;1.50;;
85190;SDS011;75560;0.000;0.000;2024-01-30T03:54:37;3.05;;;1.42;;
85190;SDS011;75560;0.000;0.000;2024-01-30T03:57:03;2.05;;;1.40;;
85190;SDS011;75560;0.000;0.000;2024-01-30T03:59:29;1.98;;;1.50;;
85190;SDS011;75560;0.000;0.000;2024-01-30T04:01:54;2.15;;;1.50;;
85190;SDS011;75560;0.000;0.000;2024-01-30T04:04:20;1.65;;;1.40;;
85190;SDS011;75560;0.000;0.000;2024-01-30T04:06:46;2.92;;;1.50;;
85190;SDS011;75560;0.000;0.000;2024-01-30T04:09:14;2.22;;;1.50;;
85190;SDS011;75560;0.000;0.000;2024-01-30T04:11:40;2.42;;;1.58;;
85190;SDS011;75560;0.000;0.000;2024-01-30T04:14:07;1.75;;;1.50;;
85190;SDS011;75560;0.000;0.000;2024-01-30T04:16:33;2.45;;;1.40;;
85190;SDS011;75560;0.000;0.000;2024-01-30T04:18:58;1.77;;;1.52;;
85190;SDS011;75560;0.000;0.000;2024-01-30T04:21:24;2.22;;;1.67;;
85190;SDS011;75560;0.000;0.000;2024-01-30T04:23:50;1.90;;;1.42;;
85190;SDS011;75560;0.000;0.000;2024-01-30T04:26:16;2.60;;;1.50;;
85190;SDS011;75560;0.000;0.000;2024-01-30T04:28:43;3.90;;;1.70;;
85190;SDS011;75560;0.000;0.000;2024-01-30T04:31:09;1.90;;;1.55;;
85190;SDS011;75560;0.000;0.000;2024-01-30T04:33:36;1.70;;;1.45;;
85190;SDS011;75560;0.000;0.000;2024-01-30T04:36:01;2.17;;;1.50;;
85190;SDS011;75560;0.000;0.000;2024-01-30T04:38:28;1.77;;;1.48;;
85190;SDS011;75560;0.000;0.000;2024-01-30T04:40:53;2.05;;;1.40;;
85190;SDS011;75560;0.000;0.000;2024-01-30T04:43:19;2.95;;;1.52;;
85190;SDS011;75560;0.000;0.000;2024-01-30T04:45:44;2.83;;;1.80;;
85190;SDS011;75560;0.000;0.000;2024-01-30T04:48:10;2.17;;;1.40;;
85190;SDS011;75560;0.000;0.000;2024-01-30T04:50:35;2.15;;;1.40;;
85190;SDS011;75560;0.000;0.000;2024-01-30T04:53:01;1.67;;;1.40;;
85190;SDS011;75560;0.000;0.000;2024-01-30T04:55:27;2.25;;;1.40;;
85190;SDS011;75560;0.000;0.000;2024-01-30T04:57:52;1.95;;;1.50;;
85190;SDS011;75560;0.000;0.000;2024-01-30T05:00:18;2.17;;;1.50;;
85190;SDS011;75560;0.000;0.000;2024-01-30T05:02:43;1.83;;;1.50;;
85190;SDS011;75560;0.000;0.000;2024-01-30T05:05:09;2.85;;;1.48;;
85190;SDS011;75560;0.000;0.000;2024-01-30T05:07:36;2.25;;;1.60;;
85190;SDS011;75560;0.000;0.000;2024-01-30T05:10:02;1.73;;;1.42;;
85190;SDS011;75560;0.000;0.000;2024-01-30T05:12:28;2.08;;;1.60;;
85190;SDS011;75560;0.000;0.000;2024-01-30T05:14:53;2.50;;;1.50;;
85190;SDS011;75560;0.000;0.000;2024-01-30T05:17:19;2.13;;;1.50;;
85190;SDS011;75560;0.000;0.000;2024-01-30T05:19:45;2.05;;;1.40;;
85190;SDS011;75560;0.000;0.000;2024-01-30T05:22:10;2.47;;;1.50;;
85190;SDS011;75560;0.000;0.000;2024-01-30T05:24:40;1.40;;;1.30;;
85190;SDS011;75560;0.000;0.000;2024-01-30T05:27:06;1.52;;;1.40;;
85190;SDS011;75560;0.000;0.000;2024-01-30T05:29:32;2.25;;;1.40;;
85190;SDS011;75560;0.000;0.000;2024-01-30T05:31:58;3.58;;;1.50;;
85190;SDS011;75560;0.000;0.000;2024-01-30T05:34:23;2.05;;;1.42;;
85190;SDS011;75560;0.000;0.000;2024-01-30T05:36:49;1.67;;;1.45;;
85190;SDS011;75560;0.000;0.000;2024-01-30T05:39:14;2.30;;;1.42;;
85190;SDS011;75560;0.000;0.000;2024-01-30T05:41:40;2.03;;;1.63;;
85190;SDS011;75560;0.000;0.000;2024-01-30T05:44:06;2.38;;;1.45;;
85190;SDS011;75560;0.000;0.000;2024-01-30T05:46:31;1.73;;;1.40;;
85190;SDS011;75560;0.000;0.000;2024-01-30T05:48:58;2.83;;;1.55;;
85190;SDS011;75560;0.000;0.000;2024-01-30T05:51:23;2.65;;;1.50;;
85190;SDS011;75560;0.000;0.000;2024-01-30T05:53:49;2.92;;;1.52;;
85190;SDS011;75560;0.000;0.000;2024-01-30T05:56:14;2.55;;;1.40;;
85190;SDS011;75560;0.000;0.000;2024-01-30T05:58:40;2.08;;;1.50;;
85190;SDS011;75560;0.000;0.000;2024-01-30T06:01:08;2.25;;;1.42;;
85190;SDS011;75560;0.000;0.000;2024-01-30T06:03:34;2.75;;;1.50;;
85190;SDS011;75560;0.000;0.000;2024-01-30T06:06:00;1.92;;;1.40;;
85190;SDS011;75560;0.000;0.000;2024-01-30T06:08:25;1.70;;;1.50;;
85190;SDS011;75560;0.000;0.000;2024-01-30T06:10:51;1.73;;;1.48;;
85190;SDS011;75560;0.000;0.000;2024-01-30T06:13:17;2.10;;;1.50;;
85190;SDS011;75560;0.000;0.000;2024-01-30T06:15:43;1.40;;;1.27;;
85190;SDS011;75560;0.000;0.000;2024-01-30T06:18:08;1.90;;;1.55;;
85190;SDS011;75560;0.000;0.000;2024-01-30T06:20:34;1.73;;;1.40;;
85190;SDS011;75560;0.000;0.000;2024-01-30T06:23:00;2.40;;;1.50;;
85190;SDS011;75560;0.000;0.000;2024-01-30T06:25:25;3.38;;;1.60;;
85190;SDS011;75560;0.000;0.000;2024-01-30T06:27:51;3.88;;;1.63;;
85190;SDS011;75560;0.000;0.000;2024-01-30T06:30:17;5.10;;;1.63;;
85190;SDS011;75560;0.000;0.000;2024-01-30T06:32:43;6.82;;;1.80;;
85190;SDS011;75560;0.000;0.000;2024-01-30T06:35:09;4.78;;;1.42;;
85190;SDS011;75560;0.000;0.000;2024-01-30T06:37:35;4.55;;;1.90;;
85190;SDS011;75560;0.000;0.000;2024-01-30T06:40:02;7.93;;;1.90;;
85190;SDS011;75560;0.000;0.000;2024-01-30T06:42:29;5.65;;;2.30;;
85190;SDS011;75560;0.000;0.000;2024-01-30T06:44:55;5.20;;;2.28;;
85190;SDS011;75560;0.000;0.000;2024-01-30T06:47:20;7.55;;;2.90;;
85190;SDS011;75560;0.000;0.000;2024-01-30T06:49:46;7.50;;;2.50;;
85190;SDS011;75560;0.000;0.000;2024-01-30T06:52:11;7.05;;;2.42;;
85190;SDS011;75560;0.000;0.000;2024-01-30T06:54:37;6.15;;;2.60;;
85190;SDS011;75560;0.000;0.000;2024-01-30T06:57:03;5.10;;;2.28;;
85190;SDS011;75560;0.000;0.000;2024-01-30T06:59:28;4.45;;;2.38;;
85190;SDS011;75560;0.000;0.000;2024-01-30T07:01:54;6.03;;;2.20;;
85190;SDS011;75560;0.000;0.000;2024-01-30T07:04:19;8.25;;;2.28;;
85190;SDS011;75560;0.000;0.000;2024-01-30T07:06:45;8.32;;;2.40;;
85190;SDS011;75560;0.000;0.000;2024-01-30T07:09:11;5.03;;;2.20;;
85190;SDS011;75560;0.000;0.000;2024-01-30T07:11:38;6.75;;;2.30;;
85190;SDS011;75560;0.000;0.000;2024-01-30T07:14:04;6.38;;;2.03;;
85190;SDS011;75560;0.000;0.000;2024-01-30T07:16:30;6.13;;;2.10;;
85190;SDS011;75560;0.000;0.000;2024-01-30T07:18:55;6.88;;;2.00;;
85190;SDS011;75560;0.000;0.000;2024-01-30T07:21:21;5.65;;;2.30;;
85190;SDS011;75560;0.000;0.000;2024-01-30T07:23:52;8.15;;;2.10;;
85190;SDS011;75560;0.000;0.000;2024-01-30T07:26:18;4.53;;;2.10;;
85190;SDS011;75560;0.000;0.000;2024-01-30T07:28:44;6.32;;;2.10;;
85190;SDS011;75560;0.000;0.000;2024-01-30T07:31:10;4.40;;;1.92;;
85190;SDS011;75560;0.000;0.000;2024-01-30T07:33:35;3.80;;;1.98;;
85190;SDS011;75560;0.000;0.000;2024-01-30T07:36:01;4.55;;;1.90;;
85190;SDS011;75560;0.000;0.000;2024-01-30T07:38:26;4.38;;;2.00;;
85190;SDS011;75560;0.000;0.000;2024-01-30T07:40:52;4.32;;;1.95;;
85190;SDS011;75560;0.000;0.000;2024-01-30T07:43:17;6.20;;;2.10;;
85190;SDS011;75560;0.000;0.000;2024-01-30T07:45:45;7.03;;;2.67;;
85190;SDS011;75560;0.000;0.000;2024-01-30T07:48:10;8.45;;;2.80;;
85190;SDS011;75560;0.000;0.000;2024-01-30T07:50:36;14.15;;;3.55;;
85190;SDS011;75560;0.000;0.000;2024-01-30T07:53:01;9.10;;;3.05;;
85190;SDS011;75560;0.000;0.000;2024-01-30T07:55:27;8.90;;;3.38;;
85190;SDS011;75560;0.000;0.000;2024-01-30T07:57:54;5.75;;;3.50;;
85190;SDS011;75560;0.000;0.000;2024-01-30T08:00:20;11.52;;;3.50;;
85190;SDS011;75560;0.000;0.000;2024-01-30T08:02:46;7.78;;;3.25;;
85190;SDS011;75560;0.000;0.000;2024-01-30T08:05:12;6.68;;;2.97;;
85190;SDS011;75560;0.000;0.000;2024-01-30T08:07:40;6.57;;;3.10;;
85190;SDS011;75560;0.000;0.000;2024-01-30T08:10:06;9.23;;;3.10;;
85190;SDS011;75560;0.000;0.000;2024-01-30T08:12:32;8.00;;;3.10;;
85190;SDS011;75560;0.000;0.000;2024-01-30T08:14:58;10.80;;;3.15;;
85190;SDS011;75560;0.000;0.000;2024-01-30T08:17:23;7.18;;;2.92;;
85190;SDS011;75560;0.000;0.000;2024-01-30T08:19:49;11.80;;;3.08;;
85190;SDS011;75560;0.000;0.000;2024-01-30T08:22:14;10.38;;;3.00;;
85190;SDS011;75560;0.000;0.000;2024-01-30T08:24:40;13.00;;;3.30;;
85190;SDS011;75560;0.000;0.000;2024-01-30T08:27:06;7.47;;;2.90;;
85190;SDS011;75560;0.000;0.000;2024-01-30T08:29:34;12.27;;;3.42;;
85190;SDS011;75560;0.000;0.000;2024-01-30T08:32:00;13.55;;;2.97;;
85190;SDS011;75560;0.000;0.000;2024-01-30T08:34:26;11.95;;;2.80;;
85190;SDS011;75560;0.000;0.000;2024-01-30T08:36:52;7.80;;;2.80;;
85190;SDS011;75560;0.000;0.000;2024-01-30T08:39:17;10.88;;;2.50;;
85190;SDS011;75560;0.000;0.000;2024-01-30T08:41:44;8.80;;;2.58;;
85190;SDS011;75560;0.000;0.000;2024-01-30T08:44:09;11.77;;;2.63;;
85190;SDS011;75560;0.000;0.000;2024-01-30T08:46:36;10.82;;;2.75;;
85190;SDS011;75560;0.000;0.000;2024-01-30T08:49:03;9.73;;;2.65;;
85190;SDS011;75560;0.000;0.000;2024-01-30T08:51:31;12.77;;;2.90;;
85190;SDS011;75560;0.000;0.000;2024-01-30T08:53:56;9.02;;;2.58;;
85190;SDS011;75560;0.000;0.000;2024-01-30T08:56:22;8.52;;;2.63;;
85190;SDS011;75560;0.000;0.000;2024-01-30T08:58:48;7.53;;;2.50;;
85190;SDS011;75560;0.000;0.000;2024-01-30T09:01:14;9.32;;;2.88;;
85190;SDS011;75560;0.000;0.000;2024-01-30T09:03:39;8.60;;;2.55;;
85190;SDS011;75560;0.000;0.000;2024-01-30T09:06:12;9.60;;;2.85;;
85190;SDS011;75560;0.000;0.000;2024-01-30T09:08:38;9.90;;;2.67;;
85190;SDS011;75560;0.000;0.000;2024-01-30T09:11:14;13.82;;;3.33;;
85190;SDS011;75560;0.000;0.000;2024-01-30T09:13:40;10.60;;;2.60;;
85190;SDS011;75560;0.000;0.000;2024-01-30T09:16:06;9.50;;;2.53;;
85190;SDS011;75560;0.000;0.000;2024-01-30T09:18:32;10.35;;;2.60;;
85190;SDS011;75560;0.000;0.000;2024-01-30T09:20:58;8.85;;;2.40;;
85190;SDS011;75560;0.000;0.000;2024-01-30T09:23:24;9.73;;;2.65;;
85190;SDS011;75560;0.000;0.000;2024-01-30T09:25:50;7.85;;;2.63;;
85190;SDS011;75560;0.000;0.000;2024-01-30T09:28:16;8.88;;;2.20;;
85190;SDS011;75560;0.000;0.000;2024-01-30T09:30:42;10.75;;;2.67;;
85190;SDS011;75560;0.000;0.000;2024-01-30T09:33:08;11.18;;;2.78;;
85190;SDS011;75560;0.000;0.000;2024-01-30T09:35:34;11.23;;;3.03;;
85190;SDS011;75560;0.000;0.000;2024-01-30T09:38:01;8.63;;;2.38;;
85190;SDS011;75560;0.000;0.000;2024-01-30T09:40:27;8.27;;;2.58;;
85190;SDS011;75560;0.000;0.000;2024-01-30T09:42:53;9.50;;;2.45;;
85190;SDS011;75560;0.000;0.000;2024-01-30T09:45:19;8.82;;;2.25;;
85190;SDS011;75560;0.000;0.000;2024-01-30T09:47:49;6.60;;;2.42;;
85190;SDS011;75560;0.000;0.000;2024-01-30T09:50:15;10.32;;;2.65;;
85190;SDS011;75560;0.000;0.000;2024-01-30T09:52:41;8.05;;;2.10;;
85190;SDS011;75560;0.000;0.000;2024-01-30T09:55:07;7.00;;;2.00;;
85190;SDS011;75560;0.000;0.000;2024-01-30T09:57:35;5.32;;;2.33;;
85190;SDS011;75560;0.000;0.000;2024-01-30T10:00:02;8.30;;;1.95;;
85190;SDS011;75560;0.000;0.000;2024-01-30T10:02:29;6.78;;;2.28;;
85190;SDS011;75560;0.000;0.000;2024-01-30T10:04:56;5.50;;;2.28;;
85190;SDS011;75560;0.000;0.000;2024-01-30T10:07:22;4.85;;;2.00;;
85190;SDS011;75560;0.000;0.000;2024-01-30T10:09:48;5.95;;;2.00;;
85190;SDS011;75560;0.000;0.000;2024-01-30T10:12:14;5.05;;;1.92;;
85190;SDS011;75560;0.000;0.000;2024-01-30T10:14:40;7.03;;;2.63;;
85190;SDS011;75560;0.000;0.000;2024-01-30T10:17:07;5.50;;;2.00;;
85190;SDS011;75560;0.000;0.000;2024-01-30T10:19:40;9.30;;;2.20;;
85190;SDS011;75560;0.000;0.000;2024-01-30T10:22:06;7.25;;;2.10;;
85190;SDS011;75560;0.000;0.000;2024-01-30T10:24:35;5.43;;;1.70;;
85190;SDS011;75560;0.000;0.000;2024-01-30T10:27:01;5.15;;;1.60;;
85190;SDS011;75560;0.000;0.000;2024-01-30T10:29:27;5.05;;;1.73;;
85190;SDS011;75560;0.000;0.000;2024-01-30T10:31:57;4.80;;;1.55;;
85190;SDS011;75560;0.000;0.000;2024-01-30T10:34:23;5.15;;;1.60;;
85190;SDS011;75560;0.000;0.000;2024-01-30T10:36:49;4.30;;;1.60;;
85190;SDS011;75560;0.000;0.000;2024-01-30T10:39:19;4.95;;;1.77;;
85190;SDS011;75560;0.000;0.000;2024-01-30T10:41:47;7.55;;;2.00;;
85190;SDS011;75560;0.000;0.000;2024-01-30T10:44:15;6.18;;;1.80;;
85190;SDS011;75560;0.000;0.000;2024-01-30T10:46:50;4.05;;;1.55;;
85190;SDS011;75560;0.000;0.000;2024-01-30T10:49:21;7.57;;;1.60;;
85190;SDS011;75560;0.000;0.000;2024-01-30T10:51:48;7.45;;;1.75;;
85190;SDS011;75560;0.000;0.000;2024-01-30T10:54:15;6.15;;;1.50;;
85190;SDS011;75560;0.000;0.000;2024-01-30T10:56:42;3.45;;;1.60;;
85190;SDS011;75560;0.000;0.000;2024-01-30T10:59:09;3.17;;;1.40;;
85190;SDS011;75560;0.000;0.000;2024-01-30T11:01:38;3.88;;;1.50;;
85190;SDS011;75560;0.000;0.000;2024-01-30T11:04:04;5.65;;;1.52;;
85190;SDS011;75560;0.000;0.000;2024-01-30T11:06:30;4.55;;;1.40;;
85190;SDS011;75560;0.000;0.000;2024-01-30T11:09:02;5.68;;;1.50;;
85190;SDS011;75560;0.000;0.000;2024-01-30T11:11:48;4.38;;;1.38;;
85190;SDS011;75560;0.000;0.000;2024-01-30T11:14:23;4.43;;;1.30;;
85190;SDS011;75560;0.000;0.000;2024-01-30T11:16:50;4.78;;;1.70;;
85190;SDS011;75560;0.000;0.000;2024-01-30T11:19:15;4.50;;;1.50;;
85190;SDS011;75560;0.000;0.000;2024-01-30T11:21:49;3.47;;;1.50;;
85190;SDS011;75560;0.000;0.000;2024-01-30T11:24:18;3.08;;;1.40;;
85190;SDS011;75560;0.000;0.000;2024-01-30T11:26:48;6.93;;;1.70;;
85190;SDS011;75560;0.000;0.000;2024-01-30T11:29:24;3.97;;;1.30;;
85190;SDS011;75560;0.000;0.000;2024-01-30T11:31:57;3.90;;;1.55;;
85190;SDS011;75560;0.000;0.000;2024-01-30T11:34:24;3.65;;;1.50;;
85190;SDS011;75560;0.000;0.000;2024-01-30T11:36:56;4.18;;;1.50;;
85190;SDS011;75560;0.000;0.000;2024-01-30T11:39:31;3.72;;;1.50;;
85190;SDS011;75560;0.000;0.000;2024-01-30T11:41:57;2.88;;;1.40;;
85190;SDS011;75560;0.000;0.000;2024-01-30T11:44:24;4.25;;;1.70;;
85190;SDS011;75560;0.000;0.000;2024-01-30T11:46:51;3.25;;;1.67;;
85190;SDS011;75560;0.000;0.000;2024-01-30T11:49:17;4.15;;;1.70;;
85190;SDS011;75560;0.000;0.000;2024-01-30T11:51:43;4.47;;;1.60;;
85190;SDS011;75560;0.000;0.000;2024-01-30T11:54:11;5.95;;;1.92;;
85190;SDS011;75560;0.000;0.000;2024-01-30T11:56:37;4.07;;;1.63;;
85190;SDS011;75560;0.000;0.000;2024-01-30T11:59:03;2.75;;;1.30;;
85190;SDS011;75560;0.000;0.000;2024-01-30T12:01:29;3.00;;;1.38;;
85190;SDS011;75560;0.000;0.000;2024-01-30T12:03:56;3.15;;;1.52;;
85190;SDS011;75560;0.000;0.000;2024-01-30T12:06:23;3.20;;;1.50;;
85190;SDS011;75560;0.000;0.000;2024-01-30T12:08:58;4.28;;;1.75;;
85190;SDS011;75560;0.000;0.000;2024-01-30T12:11:26;2.78;;;1.70;;
85190;SDS011;75560;0.000;0.000;2024-01-30T12:13:52;3.25;;;1.52;;
85190;SDS011;75560;0.000;0.000;2024-01-30T12:16:19;2.25;;;1.48;;
85190;SDS011;75560;0.000;0.000;2024-01-30T12:18:45;3.72;;;1.40;;
85190;SDS011;75560;0.000;0.000;2024-01-30T12:21:10;6.07;;;1.50;;
85190;SDS011;75560;0.000;0.000;2024-01-30T12:23:36;4.07;;;1.60;;
85190;SDS011;75560;0.000;0.000;2024-01-30T12:26:02;3.45;;;1.48;;
85190;SDS011;75560;0.000;0.000;2024-01-30T12:28:32;4.18;;;2.00;;
85190;SDS011;75560;0.000;0.000;2024-01-30T12:31:02;4.38;;;1.90;;
85190;SDS011;75560;0.000;0.000;2024-01-30T12:33:28;5.35;;;2.20;;
85190;SDS011;75560;0.000;0.000;2024-01-30T12:35:55;2.95;;;1.65;;
85190;SDS011;75560;0.000;0.000;2024-01-30T12:38:27;5.30;;;1.92;;
85190;SDS011;75560;0.000;0.000;2024-01-30T12:40:56;4.95;;;2.13;;
85190;SDS011;75560;0.000;0.000;2024-01-30T12:43:24;2.88;;;1.70;;
85190;SDS011;75560;0.000;0.000;2024-01-30T12:45:50;6.82;;;1.80;;
85190;SDS011;75560;0.000;0.000;2024-01-30T12:48:17;5.82;;;1.90;;
85190;SDS011;75560;0.000;0.000;2024-01-30T12:50:43;6.22;;;1.90;;
85190;SDS011;75560;0.000;0.000;2024-01-30T12:53:09;5.03;;;1.90;;
85190;SDS011;75560;0.000;0.000;2024-01-30T12:55:34;7.93;;;1.85;;
85190;SDS011;75560;0.000;0.000;2024-01-30T12:58:00;4.20;;;1.73;;
85190;SDS011;75560;0.000;0.000;2024-01-30T13:00:26;4.07;;;1.80;;
85190;SDS011;75560;0.000;0.000;2024-01-30T13:02:52;4.35;;;1.90;;
85190;SDS011;75560;0.000;0.000;2024-01-30T13:05:17;4.72;;;1.73;;
85190;SDS011;75560;0.000;0.000;2024-01-30T13:07:43;5.43;;;1.90;;
85190;SDS011;75560;0.000;0.000;2024-01-30T13:10:09;3.85;;;1.60;;
85190;SDS011;75560;0.000;0.000;2024-01-30T13:12:34;5.45;;;1.60;;
85190;SDS011;75560;0.000;0.000;2024-01-30T13:15:00;2.67;;;1.63;;
85190;SDS011;75560;0.000;0.000;2024-01-30T13:17:27;4.50;;;1.50;;
85190;SDS011;75560;0.000;0.000;2024-01-30T13:19:52;2.88;;;1.52;;
85190;SDS011;75560;0.000;0.000;2024-01-30T13:22:19;2.88;;;1.60;;
85190;SDS011;75560;0.000;0.000;2024-01-30T13:24:46;4.68;;;1.90;;
85190;SDS011;75560;0.000;0.000;2024-01-30T13:27:12;2.92;;;1.50;;
85190;SDS011;75560;0.000;0.000;2024-01-30T13:29:38;4.78;;;1.60;;
85190;SDS011;75560;0.000;0.000;2024-01-30T13:32:03;5.45;;;1.63;;
85190;SDS011;75560;0.000;0.000;2024-01-30T13:34:29;4.70;;;1.65;;
85190;SDS011;75560;0.000;0.000;2024-01-30T13:36:55;4.00;;;1.35;;
85190;SDS011;75560;0.000;0.000;2024-01-30T13:39:21;3.40;;;1.50;;
85190;SDS011;75560;0.000;0.000;2024-01-30T13:41:46;4.40;;;1.50;;
85190;SDS011;75560;0.000;0.000;2024-01-30T13:44:13;4.85;;;1.50;;
85190;SDS011;75560;0.000;0.000;2024-01-30T13:46:41;3.97;;;1.42;;
85190;SDS011;75560;0.000;0.000;2024-01-30T13:49:06;3.33;;;1.52;;
85190;SDS011;75560;0.000;0.000;2024-01-30T13:51:32;2.50;;;1.50;;
85190;SDS011;75560;0.000;0.000;2024-01-30T13:53:58;2.15;;;1.35;;
85190;SDS011;75560;0.000;0.000;2024-01-30T13:56:23;2.63;;;1.45;;
85190;SDS011;75560;0.000;0.000;2024-01-30T13:58:49;2.20;;;1.30;;
85190;SDS011;75560;0.000;0.000;2024-01-30T14:01:15;3.00;;;1.50;;
85190;SDS011;75560;0.000;0.000;2024-01-30T14:03:41;2.78;;;1.33;;
85190;SDS011;75560;0.000;0.000;2024-01-30T14:06:07;2.75;;;1.33;;
85190;SDS011;75560;0.000;0.000;2024-01-30T14:08:32;3.28;;;1.38;;
85190;SDS011;75560;0.000;0.000;2024-01-30T14:10:58;3.13;;;1.30;;
85190;SDS011;75560;0.000;0.000;2024-01-30T14:13:24;2.60;;;1.30;;
85190;SDS011;75560;0.000;0.000;2024-01-30T14:15:50;2.85;;;1.27;;
85190;SDS011;75560;0.000;0.000;2024-01-30T14:18:17;2.17;;;1.42;;
85190;SDS011;75560;0.000;0.000;2024-01-30T14:20:42;2.45;;;1.20;;
85190;SDS011;75560;0.000;0.000;2024-01-30T14:23:08;2.28;;;1.23;;
85190;SDS011;75560;0.000;0.000;2024-01-30T14:25:33;2.47;;;1.25;;
85190;SDS011;75560;0.000;0.000;2024-01-30T14:27:59;3.60;;;2.00;;
85190;SDS011;75560;0.000;0.000;2024-01-30T14:30:24;3.78;;;2.60;;
85190;SDS011;75560;0.000;0.000;2024-01-30T14:32:50;4.28;;;2.20;;
85190;SDS011;75560;0.000;0.000;2024-01-30T14:35:16;4.82;;;2.17;;
85190;SDS011;75560;0.000;0.000;2024-01-30T14:37:41;3.63;;;2.20;;
85190;SDS011;75560;0.000;0.000;2024-01-30T14:40:07;3.88;;;2.08;;
85190;SDS011;75560;0.000;0.000;2024-01-30T14:42:33;3.65;;;2.13;;
85190;SDS011;75560;0.000;0.000;2024-01-30T14:44:58;4.60;;;2.35;;
85190;SDS011;75560;0.000;0.000;2024-01-30T14:47:24;3.20;;;1.83;;
85190;SDS011;75560;0.000;0.000;2024-01-30T14:49:51;4.25;;;2.20;;
85190;SDS011;75560;0.000;0.000;2024-01-30T14:52:17;3.63;;;2.40;;
85190;SDS011;75560;0.000;0.000;2024-01-30T14:54:42;3.92;;;2.00;;